sensor_id;sensor_type;location;lat;lon;timestamp;temperature;humidity
22676;DHT22;12521;43.310;21.876;2022-09-09T00:04:40;21.4;96.0
22676;DHT22;12521;43.310;21.876;2022-09-09T00:09:28;21.4;96.0
22676;DHT22;12521;43.310;21.876;2022-09-09T00:14:48;21.4;96.0
22676;DHT22;12521;43.310;21.876;2022-09-09T00:19:53;21.3;96.0
22676;DHT22;12521;43.310;21.876;2022-09-09T00:24:46;21.3;96.0
22676;DHT22;12521;43.310;21.876;2022-09-09T00:29:43;21.2;96.0
22676;DHT22;12521;43.310;21.876;2022-09-09T00:34:29;21.2;96.0
22676;DHT22;12521;43.310;21.876;2022-09-09T00:39:32;21.0;96.0
22676;DHT22;12521;43.310;21.876;2022-09-09T00:44:32;21.0;96.0
22676;DHT22;12521;43.310;21.876;2022-09-09T00:49:38;20.9;96.0
22676;DHT22;12521;43.310;21.876;2022-09-09T00:54:57;20.9;96.0
22676;DHT22;12521;43.310;21.876;2022-09-09T01:00:17;20.8;96.0
22676;DHT22;12521;43.310;21.876;2022-09-09T01:05:15;20.8;96.0
22676;DHT22;12521;43.310;21.876;2022-09-09T01:10:39;20.7;96.0
22676;DHT22;12521;43.310;21.876;2022-09-09T01:15:34;20.7;96.0
22676;DHT22;12521;43.310;21.876;2022-09-09T01:20:26;20.6;96.0
22676;DHT22;12521;43.310;21.876;2022-09-09T01:26:22;20.6;96.0
22676;DHT22;12521;43.310;21.876;2022-09-09T01:31:19;20.6;96.0
22676;DHT22;12521;43.310;21.876;2022-09-09T01:36:12;20.6;96.0
22676;DHT22;12521;43.310;21.876;2022-09-09T01:41:05;20.5;96.0
22676;DHT22;12521;43.310;21.876;2022-09-09T01:45:44;20.5;96.0
22676;DHT22;12521;43.310;21.876;2022-09-09T01:50:32;20.4;96.0
22676;DHT22;12521;43.310;21.876;2022-09-09T01:55:10;20.4;96.0
22676;DHT22;12521;43.310;21.876;2022-09-09T02:00:06;20.4;96.0
22676;DHT22;12521;43.310;21.876;2022-09-09T02:05:14;20.4;96.0
22676;DHT22;12521;43.310;21.876;2022-09-09T02:10:39;20.3;96.0
22676;DHT22;12521;43.310;21.876;2022-09-09T02:15:53;20.3;96.0
22676;DHT22;12521;43.310;21.876;2022-09-09T02:20:54;20.5;96.0
22676;DHT22;12521;43.310;21.876;2022-09-09T02:25:39;20.5;96.0
22676;DHT22;12521;43.310;21.876;2022-09-09T02:30:23;20.6;96.0
22676;DHT22;12521;43.310;21.876;2022-09-09T02:35:17;20.6;96.0
22676;DHT22;12521;43.310;21.876;2022-09-09T02:40:08;20.6;96.0
22676;DHT22;12521;43.310;21.876;2022-09-09T02:44:50;20.6;96.0
22676;DHT22;12521;43.310;21.876;2022-09-09T02:49:45;20.6;96.0
22676;DHT22;12521;43.310;21.876;2022-09-09T02:55:04;20.6;96.0
22676;DHT22;12521;43.310;21.876;2022-09-09T03:00:09;20.6;96.0
22676;DHT22;12521;43.310;21.876;2022-09-09T03:04:48;20.6;96.0
22676;DHT22;12521;43.310;21.876;2022-09-09T03:09:25;20.6;96.0
22676;DHT22;12521;43.310;21.876;2022-09-09T03:14:02;20.6;96.0
22676;DHT22;12521;43.310;21.876;2022-09-09T03:18:39;20.6;96.0
22676;DHT22;12521;43.310;21.876;2022-09-09T03:23:15;20.6;96.0
22676;DHT22;12521;43.310;21.876;2022-09-09T03:27:55;20.6;96.0
22676;DHT22;12521;43.310;21.876;2022-09-09T03:32:32;20.5;96.0
22676;DHT22;12521;43.310;21.876;2022-09-09T03:37:09;20.5;96.0
22676;DHT22;12521;43.310;21.876;2022-09-09T03:41:47;20.4;96.0
22676;DHT22;12521;43.310;21.876;2022-09-09T03:46:25;20.4;96.0
22676;DHT22;12521;43.310;21.876;2022-09-09T03:51:03;20.4;96.0
22676;DHT22;12521;43.310;21.876;2022-09-09T03:55:44;20.4;96.0
22676;DHT22;12521;43.310;21.876;2022-09-09T04:00:21;20.4;96.0
22676;DHT22;12521;43.310;21.876;2022-09-09T04:04:57;20.4;96.0
22676;DHT22;12521;43.310;21.876;2022-09-09T04:09:34;20.4;96.0
22676;DHT22;12521;43.310;21.876;2022-09-09T04:14:11;20.4;96.0
22676;DHT22;12521;43.310;21.876;2022-09-09T04:18:48;20.4;96.0
22676;DHT22;12521;43.310;21.876;2022-09-09T04:23:27;20.4;96.0
22676;DHT22;12521;43.310;21.876;2022-09-09T04:28:05;20.4;96.0
22676;DHT22;12521;43.310;21.876;2022-09-09T04:32:42;20.4;96.0
22676;DHT22;12521;43.310;21.876;2022-09-09T04:37:19;20.4;96.0
22676;DHT22;12521;43.310;21.876;2022-09-09T04:41:56;20.4;96.0
22676;DHT22;12521;43.310;21.876;2022-09-09T04:46:33;20.4;96.0
22676;DHT22;12521;43.310;21.876;2022-09-09T04:51:13;20.3;96.0
22676;DHT22;12521;43.310;21.876;2022-09-09T04:56:02;20.3;96.0
22676;DHT22;12521;43.310;21.876;2022-09-09T05:00:48;20.5;96.0
22676;DHT22;12521;43.310;21.876;2022-09-09T05:05:25;20.5;96.0
22676;DHT22;12521;43.310;21.876;2022-09-09T05:10:03;20.6;96.0
22676;DHT22;12521;43.310;21.876;2022-09-09T05:14:42;20.6;96.0
22676;DHT22;12521;43.310;21.876;2022-09-09T05:19:20;20.8;96.0
22676;DHT22;12521;43.310;21.876;2022-09-09T05:23:57;20.8;96.0
22676;DHT22;12521;43.310;21.876;2022-09-09T05:28:35;20.8;96.0
22676;DHT22;12521;43.310;21.876;2022-09-09T05:33:12;21.1;96.0
22676;DHT22;12521;43.310;21.876;2022-09-09T05:37:49;21.1;96.0
22676;DHT22;12521;43.310;21.876;2022-09-09T05:42:30;21.4;96.0
22676;DHT22;12521;43.310;21.876;2022-09-09T05:47:07;21.4;96.0
22676;DHT22;12521;43.310;21.876;2022-09-09T05:51:44;21.6;96.0
22676;DHT22;12521;43.310;21.876;2022-09-09T05:56:25;21.6;96.0
22676;DHT22;12521;43.310;21.876;2022-09-09T06:01:09;21.8;96.0
22676;DHT22;12521;43.310;21.876;2022-09-09T06:05:59;21.8;96.0
22676;DHT22;12521;43.310;21.876;2022-09-09T06:10:40;22.0;96.0
22676;DHT22;12521;43.310;21.876;2022-09-09T06:15:17;22.0;96.0
22676;DHT22;12521;43.310;21.876;2022-09-09T06:19:53;22.2;96.0
22676;DHT22;12521;43.310;21.876;2022-09-09T06:24:30;22.2;96.0
22676;DHT22;12521;43.310;21.876;2022-09-09T06:29:09;22.4;96.0
22676;DHT22;12521;43.310;21.876;2022-09-09T06:33:48;22.4;96.0
22676;DHT22;12521;43.310;21.876;2022-09-09T06:38:30;22.4;96.0
22676;DHT22;12521;43.310;21.876;2022-09-09T06:43:06;22.4;96.0
22676;DHT22;12521;43.310;21.876;2022-09-09T06:47:43;22.4;96.0
22676;DHT22;12521;43.310;21.876;2022-09-09T06:52:20;22.5;96.0
22676;DHT22;12521;43.310;21.876;2022-09-09T06:56:56;22.5;96.0
22676;DHT22;12521;43.310;21.876;2022-09-09T07:01:37;22.5;96.0
22676;DHT22;12521;43.310;21.876;2022-09-09T07:06:22;22.5;96.0
22676;DHT22;12521;43.310;21.876;2022-09-09T07:11:09;22.5;96.0
22676;DHT22;12521;43.310;21.876;2022-09-09T07:15:46;22.5;96.0
22676;DHT22;12521;43.310;21.876;2022-09-09T07:20:23;22.6;96.0
22676;DHT22;12521;43.310;21.876;2022-09-09T07:25:01;22.6;96.0
22676;DHT22;12521;43.310;21.876;2022-09-09T07:29:41;22.7;96.0
22676;DHT22;12521;43.310;21.876;2022-09-09T07:34:19;22.7;96.0
22676;DHT22;12521;43.310;21.876;2022-09-09T07:39:01;22.7;96.0
22676;DHT22;12521;43.310;21.876;2022-09-09T07:43:51;22.8;96.0
22676;DHT22;12521;43.310;21.876;2022-09-09T07:48:30;22.8;96.0
22676;DHT22;12521;43.310;21.876;2022-09-09T07:53:09;23.0;96.0
22676;DHT22;12521;43.310;21.876;2022-09-09T07:57:46;23.0;96.0
22676;DHT22;12521;43.310;21.876;2022-09-09T08:02:24;23.2;96.0
22676;DHT22;12521;43.310;21.876;2022-09-09T08:07:02;23.2;96.0
22676;DHT22;12521;43.310;21.876;2022-09-09T08:11:43;23.4;96.0
22676;DHT22;12521;43.310;21.876;2022-09-09T08:16:26;23.4;96.0
22676;DHT22;12521;43.310;21.876;2022-09-09T08:21:15;23.4;96.0
22676;DHT22;12521;43.310;21.876;2022-09-09T08:26:06;23.4;96.0
22676;DHT22;12521;43.310;21.876;2022-09-09T08:30:46;23.5;96.0
22676;DHT22;12521;43.310;21.876;2022-09-09T08:35:22;23.5;96.0
22676;DHT22;12521;43.310;21.876;2022-09-09T08:39:58;23.4;96.0
22676;DHT22;12521;43.310;21.876;2022-09-09T08:45:05;23.4;96.0
22676;DHT22;12521;43.310;21.876;2022-09-09T08:50:21;23.4;96.0
22676;DHT22;12521;43.310;21.876;2022-09-09T08:55:28;23.4;96.0
22676;DHT22;12521;43.310;21.876;2022-09-09T09:00:21;23.2;96.0
22676;DHT22;12521;43.310;21.876;2022-09-09T09:05:32;23.2;96.0
22676;DHT22;12521;43.310;21.876;2022-09-09T09:10:47;23.1;96.0
22676;DHT22;12521;43.310;21.876;2022-09-09T09:15:40;23.1;96.0
22676;DHT22;12521;43.310;21.876;2022-09-09T09:20:50;23.0;96.0
22676;DHT22;12521;43.310;21.876;2022-09-09T09:25:45;23.0;96.0
22676;DHT22;12521;43.310;21.876;2022-09-09T09:30:31;22.9;96.0
22676;DHT22;12521;43.310;21.876;2022-09-09T09:35:18;22.9;96.0
22676;DHT22;12521;43.310;21.876;2022-09-09T09:39:56;25.6;96.0
22676;DHT22;12521;43.310;21.876;2022-09-09T09:44:46;25.6;96.0
22676;DHT22;12521;43.310;21.876;2022-09-09T09:49:22;28.4;96.0
22676;DHT22;12521;43.310;21.876;2022-09-09T09:54:28;28.4;96.0
22676;DHT22;12521;43.310;21.876;2022-09-09T09:59:33;28.0;96.0
22676;DHT22;12521;43.310;21.876;2022-09-09T10:04:21;28.0;96.0
22676;DHT22;12521;43.310;21.876;2022-09-09T10:09:21;28.0;96.0
22676;DHT22;12521;43.310;21.876;2022-09-09T10:14:22;27.7;96.0
22676;DHT22;12521;43.310;21.876;2022-09-09T10:20:24;27.4;96.0
22676;DHT22;12521;43.310;21.876;2022-09-09T10:26:27;27.4;96.0
22676;DHT22;12521;43.310;21.876;2022-09-09T10:32:06;27.1;96.0
22676;DHT22;12521;43.310;21.876;2022-09-09T10:38:08;27.1;96.0
22676;DHT22;12521;43.310;21.876;2022-09-09T10:43:23;28.1;96.0
22676;DHT22;12521;43.310;21.876;2022-09-09T10:49:29;28.1;96.0
22676;DHT22;12521;43.310;21.876;2022-09-09T10:55:16;29.1;95.0
22676;DHT22;12521;43.310;21.876;2022-09-09T11:00:17;29.7;94.0
22676;DHT22;12521;43.310;21.876;2022-09-09T11:05:18;29.7;94.0
22676;DHT22;12521;43.310;21.876;2022-09-09T11:10:24;30.3;92.0
22676;DHT22;12521;43.310;21.876;2022-09-09T11:15:31;30.3;92.0
22676;DHT22;12521;43.310;21.876;2022-09-09T11:20:22;29.6;93.0
22676;DHT22;12521;43.310;21.876;2022-09-09T11:25:16;29.6;93.0
22676;DHT22;12521;43.310;21.876;2022-09-09T11:30:20;28.8;94.0
22676;DHT22;12521;43.310;21.876;2022-09-09T11:35:37;28.8;94.0
22676;DHT22;12521;43.310;21.876;2022-09-09T11:40:41;29.2;92.0
22676;DHT22;12521;43.310;21.876;2022-09-09T11:45:26;29.2;92.0
22676;DHT22;12521;43.310;21.876;2022-09-09T11:50:28;29.5;91.0
22676;DHT22;12521;43.310;21.876;2022-09-09T11:55:28;29.5;91.0
22676;DHT22;12521;43.310;21.876;2022-09-09T12:00:37;29.6;91.0
22676;DHT22;12521;43.310;21.876;2022-09-09T12:05:18;29.6;91.0
22676;DHT22;12521;43.310;21.876;2022-09-09T12:10:19;29.6;91.0
22676;DHT22;12521;43.310;21.876;2022-09-09T12:15:28;29.6;91.0
22676;DHT22;12521;43.310;21.876;2022-09-09T12:20:17;29.6;90.0
22676;DHT22;12521;43.310;21.876;2022-09-09T12:25:23;29.6;90.0
22676;DHT22;12521;43.310;21.876;2022-09-09T12:30:39;29.6;90.0
22676;DHT22;12521;43.310;21.876;2022-09-09T12:35:53;29.6;90.0
22676;DHT22;12521;43.310;21.876;2022-09-09T12:40:35;29.6;90.0
22676;DHT22;12521;43.310;21.876;2022-09-09T12:45:21;29.6;90.0
22676;DHT22;12521;43.310;21.876;2022-09-09T12:50:21;29.5;90.0
22676;DHT22;12521;43.310;21.876;2022-09-09T12:55:21;29.5;90.0
22676;DHT22;12521;43.310;21.876;2022-09-09T13:00:20;29.3;91.0
22676;DHT22;12521;43.310;21.876;2022-09-09T13:05:19;29.3;91.0
22676;DHT22;12521;43.310;21.876;2022-09-09T13:10:15;29.1;92.0
22676;DHT22;12521;43.310;21.876;2022-09-09T13:15:29;29.1;92.0
22676;DHT22;12521;43.310;21.876;2022-09-09T13:20:19;28.9;92.0
22676;DHT22;12521;43.310;21.876;2022-09-09T13:25:18;28.9;92.0
22676;DHT22;12521;43.310;21.876;2022-09-09T13:30:26;28.7;93.0
22676;DHT22;12521;43.310;21.876;2022-09-09T13:35:24;28.7;93.0
22676;DHT22;12521;43.310;21.876;2022-09-09T13:40:06;28.3;93.0
22676;DHT22;12521;43.310;21.876;2022-09-09T13:45:00;28.3;93.0
22676;DHT22;12521;43.310;21.876;2022-09-09T13:49:38;27.9;93.0
22676;DHT22;12521;43.310;21.876;2022-09-09T13:54:19;27.9;93.0
22676;DHT22;12521;43.310;21.876;2022-09-09T13:58:57;27.9;93.0
22676;DHT22;12521;43.310;21.876;2022-09-09T14:03:33;28.1;92.0
22676;DHT22;12521;43.310;21.876;2022-09-09T14:08:25;28.1;92.0
22676;DHT22;12521;43.310;21.876;2022-09-09T14:13:03;28.3;91.0
22676;DHT22;12521;43.310;21.876;2022-09-09T14:17:40;28.3;91.0
22676;DHT22;12521;43.310;21.876;2022-09-09T14:22:17;27.9;92.0
22676;DHT22;12521;43.310;21.876;2022-09-09T14:26:55;27.9;92.0
22676;DHT22;12521;43.310;21.876;2022-09-09T14:31:32;27.5;93.0
22676;DHT22;12521;43.310;21.876;2022-09-09T14:36:10;27.5;93.0
22676;DHT22;12521;43.310;21.876;2022-09-09T14:40:48;28.0;92.0
22676;DHT22;12521;43.310;21.876;2022-09-09T14:45:25;28.0;92.0
22676;DHT22;12521;43.310;21.876;2022-09-09T14:50:03;28.4;92.0
22676;DHT22;12521;43.310;21.876;2022-09-09T14:54:42;28.4;92.0
22676;DHT22;12521;43.310;21.876;2022-09-09T14:59:19;28.4;92.0
22676;DHT22;12521;43.310;21.876;2022-09-09T15:03:59;28.4;91.0
22676;DHT22;12521;43.310;21.876;2022-09-09T15:08:45;28.4;91.0
22676;DHT22;12521;43.310;21.876;2022-09-09T15:13:28;28.5;91.0
22676;DHT22;12521;43.310;21.876;2022-09-09T15:18:05;28.5;91.0
22676;DHT22;12521;43.310;21.876;2022-09-09T15:22:42;28.0;92.0
22676;DHT22;12521;43.310;21.876;2022-09-09T15:27:20;28.0;92.0
22676;DHT22;12521;43.310;21.876;2022-09-09T15:31:57;27.5;93.0
22676;DHT22;12521;43.310;21.876;2022-09-09T15:36:38;27.5;93.0
22676;DHT22;12521;43.310;21.876;2022-09-09T15:41:22;27.2;94.0
22676;DHT22;12521;43.310;21.876;2022-09-09T15:46:28;27.2;94.0
22676;DHT22;12521;43.310;21.876;2022-09-09T15:51:12;26.9;95.0
22676;DHT22;12521;43.310;21.876;2022-09-09T15:55:55;26.9;95.0
22676;DHT22;12521;43.310;21.876;2022-09-09T16:00:32;26.7;96.0
22676;DHT22;12521;43.310;21.876;2022-09-09T16:05:09;26.7;96.0
22676;DHT22;12521;43.310;21.876;2022-09-09T16:09:46;26.5;96.0
22676;DHT22;12521;43.310;21.876;2022-09-09T16:14:22;26.5;96.0
22676;DHT22;12521;43.310;21.876;2022-09-09T16:19:07;26.5;96.0
22676;DHT22;12521;43.310;21.876;2022-09-09T16:23:51;26.0;96.0
22676;DHT22;12521;43.310;21.876;2022-09-09T16:28:29;26.0;96.0
22676;DHT22;12521;43.310;21.876;2022-09-09T16:33:05;25.6;96.0
22676;DHT22;12521;43.310;21.876;2022-09-09T16:37:41;25.6;96.0
22676;DHT22;12521;43.310;21.876;2022-09-09T16:42:18;25.2;96.0
22676;DHT22;12521;43.310;21.876;2022-09-09T16:46:54;25.2;96.0
22676;DHT22;12521;43.310;21.876;2022-09-09T16:51:37;24.9;96.0
22676;DHT22;12521;43.310;21.876;2022-09-09T16:56:22;24.9;96.0
22676;DHT22;12521;43.310;21.876;2022-09-09T17:01:05;24.6;96.0
22676;DHT22;12521;43.310;21.876;2022-09-09T17:05:42;24.6;96.0
22676;DHT22;12521;43.310;21.876;2022-09-09T17:10:19;24.4;96.0
22676;DHT22;12521;43.310;21.876;2022-09-09T17:14:55;24.4;96.0
22676;DHT22;12521;43.310;21.876;2022-09-09T17:19:32;24.4;96.0
22676;DHT22;12521;43.310;21.876;2022-09-09T17:24:11;24.2;96.0
22676;DHT22;12521;43.310;21.876;2022-09-09T17:28:48;24.2;96.0
22676;DHT22;12521;43.310;21.876;2022-09-09T17:33:25;24.0;96.0
22676;DHT22;12521;43.310;21.876;2022-09-09T17:38:01;24.0;96.0
22676;DHT22;12521;43.310;21.876;2022-09-09T17:42:38;23.8;96.0
22676;DHT22;12521;43.310;21.876;2022-09-09T17:47:15;23.8;96.0
22676;DHT22;12521;43.310;21.876;2022-09-09T17:51:51;23.6;96.0
22676;DHT22;12521;43.310;21.876;2022-09-09T17:56:32;23.6;96.0
22676;DHT22;12521;43.310;21.876;2022-09-09T18:01:19;23.5;96.0
22676;DHT22;12521;43.310;21.876;2022-09-09T18:06:11;23.5;96.0
22676;DHT22;12521;43.310;21.876;2022-09-09T18:11:03;23.3;96.0
22676;DHT22;12521;43.310;21.876;2022-09-09T18:15:44;23.3;96.0
22676;DHT22;12521;43.310;21.876;2022-09-09T18:20:21;23.2;96.0
22676;DHT22;12521;43.310;21.876;2022-09-09T18:24:58;23.2;96.0
22676;DHT22;12521;43.310;21.876;2022-09-09T18:29:35;23.2;96.0
22676;DHT22;12521;43.310;21.876;2022-09-09T18:34:17;23.2;96.0
22676;DHT22;12521;43.310;21.876;2022-09-09T18:39:03;23.2;96.0
22676;DHT22;12521;43.310;21.876;2022-09-09T18:43:44;23.1;96.0
22676;DHT22;12521;43.310;21.876;2022-09-09T18:48:21;23.1;96.0
22676;DHT22;12521;43.310;21.876;2022-09-09T18:52:58;23.0;96.0
22676;DHT22;12521;43.310;21.876;2022-09-09T18:57:35;23.0;96.0
22676;DHT22;12521;43.310;21.876;2022-09-09T19:02:12;22.8;96.0
22676;DHT22;12521;43.310;21.876;2022-09-09T19:06:50;22.8;96.0
22676;DHT22;12521;43.310;21.876;2022-09-09T19:11:27;22.6;96.0
22676;DHT22;12521;43.310;21.876;2022-09-09T19:16:07;22.6;96.0
22676;DHT22;12521;43.310;21.876;2022-09-09T19:20:49;22.6;96.0
22676;DHT22;12521;43.310;21.876;2022-09-09T19:25:25;22.6;96.0
22676;DHT22;12521;43.310;21.876;2022-09-09T19:30:04;22.5;96.0
22676;DHT22;12521;43.310;21.876;2022-09-09T19:34:44;22.5;96.0
22676;DHT22;12521;43.310;21.876;2022-09-09T19:39:21;22.5;96.0
22676;DHT22;12521;43.310;21.876;2022-09-09T19:44:02;22.4;96.0
22676;DHT22;12521;43.310;21.876;2022-09-09T19:48:48;22.4;96.0
22676;DHT22;12521;43.310;21.876;2022-09-09T19:53:25;22.4;96.0
22676;DHT22;12521;43.310;21.876;2022-09-09T19:58:02;22.4;96.0
22676;DHT22;12521;43.310;21.876;2022-09-09T20:02:38;22.3;96.0
22676;DHT22;12521;43.310;21.876;2022-09-09T20:07:15;22.3;96.0
22676;DHT22;12521;43.310;21.876;2022-09-09T20:11:51;22.2;96.0
22676;DHT22;12521;43.310;21.876;2022-09-09T20:16:31;22.2;96.0
22676;DHT22;12521;43.310;21.876;2022-09-09T20:21:14;22.1;96.0
22676;DHT22;12521;43.310;21.876;2022-09-09T20:26:04;22.1;96.0
22676;DHT22;12521;43.310;21.876;2022-09-09T20:30:47;22.0;96.0
22676;DHT22;12521;43.310;21.876;2022-09-09T20:35:27;22.0;96.0
22676;DHT22;12521;43.310;21.876;2022-09-09T20:40:06;22.0;96.0
22676;DHT22;12521;43.310;21.876;2022-09-09T20:44:46;22.0;96.0
22676;DHT22;12521;43.310;21.876;2022-09-09T20:49:23;22.0;96.0
22676;DHT22;12521;43.310;21.876;2022-09-09T20:54:06;21.9;96.0
22676;DHT22;12521;43.310;21.876;2022-09-09T20:58:55;21.9;96.0
22676;DHT22;12521;43.310;21.876;2022-09-09T21:03:35;21.8;96.0
22676;DHT22;12521;43.310;21.876;2022-09-09T21:08:12;21.8;96.0
22676;DHT22;12521;43.310;21.876;2022-09-09T21:12:49;21.7;96.0
22676;DHT22;12521;43.310;21.876;2022-09-09T21:17:26;21.7;96.0
22676;DHT22;12521;43.310;21.876;2022-09-09T21:22:03;21.7;96.0
22676;DHT22;12521;43.310;21.876;2022-09-09T21:26:40;21.7;96.0
22676;DHT22;12521;43.310;21.876;2022-09-09T21:40:48;21.6;96.0
22676;DHT22;12521;43.310;21.876;2022-09-09T21:45:25;21.6;96.0
22676;DHT22;12521;43.310;21.876;2022-09-09T21:50:02;21.6;96.0
22676;DHT22;12521;43.310;21.876;2022-09-09T21:54:40;21.6;96.0
22676;DHT22;12521;43.310;21.876;2022-09-09T21:59:17;21.6;96.0
22676;DHT22;12521;43.310;21.876;2022-09-09T22:03:53;21.5;96.0
22676;DHT22;12521;43.310;21.876;2022-09-09T22:08:30;21.5;96.0
22676;DHT22;12521;43.310;21.876;2022-09-09T22:13:07;21.4;96.0
22676;DHT22;12521;43.310;21.876;2022-09-09T22:17:44;21.4;96.0
22676;DHT22;12521;43.310;21.876;2022-09-09T22:22:21;21.3;96.0
22676;DHT22;12521;43.310;21.876;2022-09-09T22:26:57;21.3;96.0
22676;DHT22;12521;43.310;21.876;2022-09-09T22:31:35;21.2;96.0
22676;DHT22;12521;43.310;21.876;2022-09-09T22:36:12;21.2;96.0
22676;DHT22;12521;43.310;21.876;2022-09-09T22:40:49;21.1;96.0
22676;DHT22;12521;43.310;21.876;2022-09-09T22:45:25;21.1;96.0
22676;DHT22;12521;43.310;21.876;2022-09-09T22:50:05;21.0;96.0
22676;DHT22;12521;43.310;21.876;2022-09-09T22:54:42;21.0;96.0
22676;DHT22;12521;43.310;21.876;2022-09-09T22:59:19;21.0;96.0
22676;DHT22;12521;43.310;21.876;2022-09-09T23:03:58;20.9;96.0
22676;DHT22;12521;43.310;21.876;2022-09-09T23:08:37;20.9;96.0
22676;DHT22;12521;43.310;21.876;2022-09-09T23:13:14;20.8;96.0
22676;DHT22;12521;43.310;21.876;2022-09-09T23:17:51;20.8;96.0
22676;DHT22;12521;43.310;21.876;2022-09-09T23:22:28;20.8;96.0
22676;DHT22;12521;43.310;21.876;2022-09-09T23:27:06;20.8;96.0
22676;DHT22;12521;43.310;21.876;2022-09-09T23:31:46;20.7;96.0
22676;DHT22;12521;43.310;21.876;2022-09-09T23:36:27;20.7;96.0
22676;DHT22;12521;43.310;21.876;2022-09-09T23:41:13;20.5;96.0
22676;DHT22;12521;43.310;21.876;2022-09-09T23:45:56;20.5;96.0
22676;DHT22;12521;43.310;21.876;2022-09-09T23:50:33;20.4;96.0
22676;DHT22;12521;43.310;21.876;2022-09-09T23:55:10;20.4;96.0
22676;DHT22;12521;43.310;21.876;2022-09-09T23:59:47;20.4;96.0
